Barren, Illinois
Current Conditions -  °F | °C
As of 8:51 AM on Friday 28 Nov 2014 (Local Time) from KMWA Reporting Station
Clear Clear  
Wind Chill: 25°   Ceiling: Unl
Heat Index: 34°   Visibility: 10mi
Dew Point: 27°   Wind: 12mph
Humidity: 75%   Direction: 180°S
Pressure: 30.34"   Gusts: NA
Location:  38.0175°N, 88.9351°W
Report Text: KMWA 281451Z 18010KT 10SM SKC 01/M03 A3034
Loading
Personal Weather Stations






























Interactive Weather Map New forecast layout! Learn more

10-Day Weather Forecast

Advertisements
Track Severe Weather on mobile